sensor_id;sensor_type;location;lat;lon;timestamp;pressure;altitude;pressure_sealevel;temperature;humidity
64158;BME280;50449;51.528;5.076;2023-05-21T00:00:41;101734.44;;;22.57;39.90
64158;BME280;50449;51.528;5.076;2023-05-21T00:03:07;101738.59;;;22.55;39.92
64158;BME280;50449;51.528;5.076;2023-05-21T00:05:40;101735.63;;;22.51;39.54
64158;BME280;50449;51.528;5.076;2023-05-21T00:08:06;101740.91;;;22.47;40.07
64158;BME280;50449;51.528;5.076;2023-05-21T00:10:31;101736.81;;;22.45;39.50
64158;BME280;50449;51.528;5.076;2023-05-21T00:12:56;101741.00;;;22.42;39.58
64158;BME280;50449;51.528;5.076;2023-05-21T00:15:22;101736.91;;;22.40;39.53
64158;BME280;50449;51.528;5.076;2023-05-21T00:17:47;101733.94;;;22.36;39.76
64158;BME280;50449;51.528;5.076;2023-05-21T00:20:13;101731.78;;;22.33;40.01
64158;BME280;50449;51.528;5.076;2023-05-21T00:22:38;101727.69;;;22.31;40.09
64158;BME280;50449;51.528;5.076;2023-05-21T00:25:07;101731.88;;;22.28;40.12
64158;BME280;50449;51.528;5.076;2023-05-21T00:27:32;101727.78;;;22.25;39.93
64158;BME280;50449;51.528;5.076;2023-05-21T00:29:58;101727.53;;;22.22;40.26
64158;BME280;50449;51.528;5.076;2023-05-21T00:32:23;101727.00;;;22.20;40.23
64158;BME280;50449;51.528;5.076;2023-05-21T00:34:48;101727.56;;;22.17;40.22
64158;BME280;50449;51.528;5.076;2023-05-21T00:37:14;101719.09;;;22.13;39.71
64158;BME280;50449;51.528;5.076;2023-05-21T00:39:40;101728.78;;;22.11;40.01
64158;BME280;50449;51.528;5.076;2023-05-21T00:42:06;101715.63;;;22.08;40.09
64158;BME280;50449;51.528;5.076;2023-05-21T00:44:31;101718.94;;;22.04;40.43
64158;BME280;50449;51.528;5.076;2023-05-21T00:47:00;101710.19;;;22.02;40.16
64158;BME280;50449;51.528;5.076;2023-05-21T00:49:26;101717.38;;;21.98;39.83
64158;BME280;50449;51.528;5.076;2023-05-21T00:51:52;101716.03;;;21.96;40.20
64158;BME280;50449;51.528;5.076;2023-05-21T00:54:19;101718.56;;;21.92;40.00
64158;BME280;50449;51.528;5.076;2023-05-21T00:56:46;101718.06;;;21.90;40.28
64158;BME280;50449;51.528;5.076;2023-05-21T00:59:12;101718.63;;;21.87;40.52
64158;BME280;50449;51.528;5.076;2023-05-21T01:01:42;101722.78;;;21.85;40.49
64158;BME280;50449;51.528;5.076;2023-05-21T01:04:07;101719.81;;;21.81;40.03
64158;BME280;50449;51.528;5.076;2023-05-21T01:06:33;101716.84;;;21.77;40.21
64158;BME280;50449;51.528;5.076;2023-05-21T01:09:00;101717.13;;;21.76;40.26
64158;BME280;50449;51.528;5.076;2023-05-21T01:11:36;101714.97;;;21.73;40.70
64158;BME280;50449;51.528;5.076;2023-05-21T01:14:04;101715.56;;;21.70;40.21
64158;BME280;50449;51.528;5.076;2023-05-21T01:16:32;101720.53;;;21.68;40.63
64158;BME280;50449;51.528;5.076;2023-05-21T01:18:57;101713.16;;;21.63;40.35
64158;BME280;50449;51.528;5.076;2023-05-21T01:21:24;101711.81;;;21.60;40.52
64158;BME280;50449;51.528;5.076;2023-05-21T01:23:50;101714.03;;;21.58;40.21
64158;BME280;50449;51.528;5.076;2023-05-21T01:26:15;101715.44;;;21.56;40.47
64158;BME280;50449;51.528;5.076;2023-05-21T01:28:40;101708.88;;;21.52;40.56
64158;BME280;50449;51.528;5.076;2023-05-21T01:31:15;101709.19;;;21.50;40.25
64158;BME280;50449;51.528;5.076;2023-05-21T01:33:50;101709.78;;;21.47;40.27
64158;BME280;50449;51.528;5.076;2023-05-21T01:36:22;101710.34;;;21.44;40.67
64158;BME280;50449;51.528;5.076;2023-05-21T01:39:01;101709.00;;;21.42;40.73
64158;BME280;50449;51.528;5.076;2023-05-21T01:41:33;101700.50;;;21.38;40.57
64158;BME280;50449;51.528;5.076;2023-05-21T01:44:02;101698.03;;;21.36;40.84
64158;BME280;50449;51.528;5.076;2023-05-21T01:46:32;101700.56;;;21.33;40.95
64158;BME280;50449;51.528;5.076;2023-05-21T01:49:00;101698.09;;;21.31;41.09
64158;BME280;50449;51.528;5.076;2023-05-21T01:51:26;101696.75;;;21.29;40.86
64158;BME280;50449;51.528;5.076;2023-05-21T01:53:52;101689.91;;;21.26;41.01
64158;BME280;50449;51.528;5.076;2023-05-21T01:56:17;101694.88;;;21.24;40.93
64158;BME280;50449;51.528;5.076;2023-05-21T01:58:42;101695.47;;;21.21;40.76
64158;BME280;50449;51.528;5.076;2023-05-21T02:01:08;101689.44;;;21.19;40.84
64158;BME280;50449;51.528;5.076;2023-05-21T02:03:33;101692.78;;;21.16;40.93
64158;BME280;50449;51.528;5.076;2023-05-21T02:05:59;101691.44;;;21.13;40.78
64158;BME280;50449;51.528;5.076;2023-05-21T02:08:24;101692.03;;;21.10;40.83
64158;BME280;50449;51.528;5.076;2023-05-21T02:10:51;101697.78;;;21.09;40.89
64158;BME280;50449;51.528;5.076;2023-05-21T02:13:17;101688.19;;;21.06;41.00
64158;BME280;50449;51.528;5.076;2023-05-21T02:15:45;101689.59;;;21.04;40.92
64158;BME280;50449;51.528;5.076;2023-05-21T02:18:11;101696.50;;;21.01;41.31
64158;BME280;50449;51.528;5.076;2023-05-21T02:20:40;101697.09;;;20.98;41.26
64158;BME280;50449;51.528;5.076;2023-05-21T02:23:06;101699.28;;;20.96;41.02
64158;BME280;50449;51.528;5.076;2023-05-21T02:25:31;101695.19;;;20.93;41.10
64158;BME280;50449;51.528;5.076;2023-05-21T02:27:56;101698.25;;;20.92;41.32
64158;BME280;50449;51.528;5.076;2023-05-21T02:30:22;101698.81;;;20.89;41.20
64158;BME280;50449;51.528;5.076;2023-05-21T02:32:47;101691.97;;;20.86;41.58
64158;BME280;50449;51.528;5.076;2023-05-21T02:35:13;101695.03;;;20.85;41.44
64158;BME280;50449;51.528;5.076;2023-05-21T02:37:39;101690.13;;;20.82;41.63
64158;BME280;50449;51.528;5.076;2023-05-21T02:40:05;101694.25;;;20.79;41.44
64158;BME280;50449;51.528;5.076;2023-05-21T02:42:31;101688.22;;;20.77;41.39
64158;BME280;50449;51.528;5.076;2023-05-21T02:44:57;101687.69;;;20.75;41.37
64158;BME280;50449;51.528;5.076;2023-05-21T02:47:22;101689.09;;;20.72;41.66
64158;BME280;50449;51.528;5.076;2023-05-21T02:49:50;101685.81;;;20.70;41.26
64158;BME280;50449;51.528;5.076;2023-05-21T02:52:17;101682.53;;;20.68;41.89
64158;BME280;50449;51.528;5.076;2023-05-21T02:54:43;101683.09;;;20.65;41.65
64158;BME280;50449;51.528;5.076;2023-05-21T02:57:09;101679.00;;;20.63;41.75
64158;BME280;50449;51.528;5.076;2023-05-21T02:59:34;101679.28;;;20.61;41.57
64158;BME280;50449;51.528;5.076;2023-05-21T03:01:59;101675.19;;;20.59;42.10
64158;BME280;50449;51.528;5.076;2023-05-21T03:04:25;101674.69;;;20.57;41.48
64158;BME280;50449;51.528;5.076;2023-05-21T03:06:52;101685.13;;;20.55;41.60
64158;BME280;50449;51.528;5.076;2023-05-21T03:09:22;101673.03;;;20.50;41.90
64158;BME280;50449;51.528;5.076;2023-05-21T03:11:49;101674.16;;;20.49;41.77
64158;BME280;50449;51.528;5.076;2023-05-21T03:14:15;101668.13;;;20.47;42.12
64158;BME280;50449;51.528;5.076;2023-05-21T03:16:41;101665.16;;;20.44;41.68
64158;BME280;50449;51.528;5.076;2023-05-21T03:19:08;101672.03;;;20.41;42.00
64158;BME280;50449;51.528;5.076;2023-05-21T03:21:33;101666.00;;;20.39;41.69
64158;BME280;50449;51.528;5.076;2023-05-21T03:23:58;101665.47;;;20.37;42.22
64158;BME280;50449;51.528;5.076;2023-05-21T03:26:28;101662.19;;;20.35;42.23
64158;BME280;50449;51.528;5.076;2023-05-21T03:28:54;101660.84;;;20.32;42.40
64158;BME280;50449;51.528;5.076;2023-05-21T03:31:20;101663.03;;;20.30;42.20
64158;BME280;50449;51.528;5.076;2023-05-21T03:33:46;101665.25;;;20.28;42.03
64158;BME280;50449;51.528;5.076;2023-05-21T03:36:11;101667.47;;;20.26;42.05
64158;BME280;50449;51.528;5.076;2023-05-21T03:38:37;101663.38;;;20.24;42.47
64158;BME280;50449;51.528;5.076;2023-05-21T03:41:02;101664.78;;;20.21;42.43
64158;BME280;50449;51.528;5.076;2023-05-21T03:43:27;101673.00;;;20.21;41.97
64158;BME280;50449;51.528;5.076;2023-05-21T03:45:53;101665.31;;;20.18;42.39
64158;BME280;50449;51.528;5.076;2023-05-21T03:48:19;101663.16;;;20.15;42.28
64158;BME280;50449;51.528;5.076;2023-05-21T03:50:44;101668.94;;;20.14;42.33
64158;BME280;50449;51.528;5.076;2023-05-21T03:53:10;101670.31;;;20.11;42.50
64158;BME280;50449;51.528;5.076;2023-05-21T03:55:35;101663.50;;;20.08;42.23
64158;BME280;50449;51.528;5.076;2023-05-21T03:58:00;101664.56;;;20.07;42.23
64158;BME280;50449;51.528;5.076;2023-05-21T04:00:26;101665.97;;;20.05;42.32
64158;BME280;50449;51.528;5.076;2023-05-21T04:02:51;101660.78;;;20.03;42.53
64158;BME280;50449;51.528;5.076;2023-05-21T04:05:17;101671.19;;;20.01;42.79
64158;BME280;50449;51.528;5.076;2023-05-21T04:07:42;101668.72;;;20.00;42.83
64158;BME280;50449;51.528;5.076;2023-05-21T04:10:10;101670.94;;;19.98;42.57
64158;BME280;50449;51.528;5.076;2023-05-21T04:12:36;101666.03;;;19.95;42.78
64158;BME280;50449;51.528;5.076;2023-05-21T04:15:01;101661.66;;;19.94;42.81
64158;BME280;50449;51.528;5.076;2023-05-21T04:17:27;101663.03;;;19.91;42.94
64158;BME280;50449;51.528;5.076;2023-05-21T04:19:52;101666.06;;;19.89;42.78
64158;BME280;50449;51.528;5.076;2023-05-21T04:22:18;101665.50;;;19.87;42.42
64158;BME280;50449;51.528;5.076;2023-05-21T04:24:44;101654.00;;;19.85;42.72
64158;BME280;50449;51.528;5.076;2023-05-21T04:27:11;101659.78;;;19.84;42.96
64158;BME280;50449;51.528;5.076;2023-05-21T04:29:38;101666.66;;;19.81;42.79
64158;BME280;50449;51.528;5.076;2023-05-21T04:32:06;101672.41;;;19.80;42.88
64158;BME280;50449;51.528;5.076;2023-05-21T04:34:32;101666.69;;;19.76;42.94
64158;BME280;50449;51.528;5.076;2023-05-21T04:36:58;101665.03;;;19.75;42.90
64158;BME280;50449;51.528;5.076;2023-05-21T04:39:24;101658.19;;;19.73;43.29
64158;BME280;50449;51.528;5.076;2023-05-21T04:41:49;101669.44;;;19.71;42.79
64158;BME280;50449;51.528;5.076;2023-05-21T04:44:18;101665.06;;;19.70;43.41
64158;BME280;50449;51.528;5.076;2023-05-21T04:46:44;101664.53;;;19.68;43.20
64158;BME280;50449;51.528;5.076;2023-05-21T04:49:10;101668.38;;;19.67;42.88
64158;BME280;50449;51.528;5.076;2023-05-21T04:51:35;101663.16;;;19.65;43.31
64158;BME280;50449;51.528;5.076;2023-05-21T04:54:02;101662.59;;;19.63;43.23
64158;BME280;50449;51.528;5.076;2023-05-21T04:56:28;101662.88;;;19.62;43.38
64158;BME280;50449;51.528;5.076;2023-05-21T04:58:53;101663.16;;;19.60;43.24
64158;BME280;50449;51.528;5.076;2023-05-21T05:01:20;101657.16;;;19.58;43.26
64158;BME280;50449;51.528;5.076;2023-05-21T05:03:49;101664.81;;;19.56;43.50
64158;BME280;50449;51.528;5.076;2023-05-21T05:06:16;101665.91;;;19.55;43.28
64158;BME280;50449;51.528;5.076;2023-05-21T05:08:41;101663.72;;;19.52;43.39
64158;BME280;50449;51.528;5.076;2023-05-21T05:11:07;101671.94;;;19.52;43.68
64158;BME280;50449;51.528;5.076;2023-05-21T05:13:33;101665.13;;;19.50;43.61
64158;BME280;50449;51.528;5.076;2023-05-21T05:15:59;101666.22;;;19.49;43.78
64158;BME280;50449;51.528;5.076;2023-05-21T05:18:24;101667.59;;;19.46;43.42
64158;BME280;50449;51.528;5.076;2023-05-21T05:20:50;101669.53;;;19.45;43.64
64158;BME280;50449;51.528;5.076;2023-05-21T05:23:16;101661.59;;;19.44;43.75
64158;BME280;50449;51.528;5.076;2023-05-21T05:25:41;101670.06;;;19.42;43.48
64158;BME280;50449;51.528;5.076;2023-05-21T05:28:07;101671.19;;;19.41;43.73
64158;BME280;50449;51.528;5.076;2023-05-21T05:30:32;101675.84;;;19.41;43.55
64158;BME280;50449;51.528;5.076;2023-05-21T05:32:57;101671.75;;;19.38;43.42
64158;BME280;50449;51.528;5.076;2023-05-21T05:35:23;101670.09;;;19.37;43.87
64158;BME280;50449;51.528;5.076;2023-05-21T05:37:48;101672.31;;;19.35;44.10
64158;BME280;50449;51.528;5.076;2023-05-21T05:40:14;101676.13;;;19.34;44.01
64158;BME280;50449;51.528;5.076;2023-05-21T05:42:39;101671.75;;;19.33;44.12
64158;BME280;50449;51.528;5.076;2023-05-21T05:45:05;101672.84;;;19.32;43.88
64158;BME280;50449;51.528;5.076;2023-05-21T05:47:31;101675.88;;;19.31;44.10
64158;BME280;50449;51.528;5.076;2023-05-21T05:49:56;101675.03;;;19.30;44.01
64158;BME280;50449;51.528;5.076;2023-05-21T05:52:21;101674.22;;;19.30;43.85
64158;BME280;50449;51.528;5.076;2023-05-21T05:54:47;101676.41;;;19.28;44.06
64158;BME280;50449;51.528;5.076;2023-05-21T05:57:12;101675.59;;;19.27;43.81
64158;BME280;50449;51.528;5.076;2023-05-21T05:59:38;101670.41;;;19.26;44.37
64158;BME280;50449;51.528;5.076;2023-05-21T06:02:03;101678.63;;;19.26;44.13
64158;BME280;50449;51.528;5.076;2023-05-21T06:04:29;101671.50;;;19.24;44.31
64158;BME280;50449;51.528;5.076;2023-05-21T06:06:55;101666.31;;;19.23;44.24
64158;BME280;50449;51.528;5.076;2023-05-21T06:09:24;101669.31;;;19.21;44.50
64158;BME280;50449;51.528;5.076;2023-05-21T06:11:49;101657.56;;;19.21;44.13
64158;BME280;50449;51.528;5.076;2023-05-21T06:14:15;101675.06;;;19.20;44.49
64158;BME280;50449;51.528;5.076;2023-05-21T06:16:40;101676.19;;;19.19;44.56
64158;BME280;50449;51.528;5.076;2023-05-21T06:19:06;101676.44;;;19.17;44.57
64158;BME280;50449;51.528;5.076;2023-05-21T06:21:31;101680.03;;;19.18;44.50
64158;BME280;50449;51.528;5.076;2023-05-21T06:23:57;101674.81;;;19.16;44.74
64158;BME280;50449;51.528;5.076;2023-05-21T06:26:22;101675.94;;;19.15;44.72
64158;BME280;50449;51.528;5.076;2023-05-21T06:28:48;101678.66;;;19.15;44.87
64158;BME280;50449;51.528;5.076;2023-05-21T06:31:14;101677.81;;;19.15;44.52
64158;BME280;50449;51.528;5.076;2023-05-21T06:33:40;101668.78;;;19.14;44.93
64158;BME280;50449;51.528;5.076;2023-05-21T06:36:05;101674.56;;;19.13;44.92
64158;BME280;50449;51.528;5.076;2023-05-21T06:38:31;101670.97;;;19.12;44.82
64158;BME280;50449;51.528;5.076;2023-05-21T06:40:56;101675.66;;;19.12;44.76
64158;BME280;50449;51.528;5.076;2023-05-21T06:43:23;101666.63;;;19.11;44.69
64158;BME280;50449;51.528;5.076;2023-05-21T06:45:48;101678.69;;;19.10;44.59
64158;BME280;50449;51.528;5.076;2023-05-21T06:48:14;101666.88;;;19.10;44.66
64158;BME280;50449;51.528;5.076;2023-05-21T06:50:42;101669.09;;;19.08;44.57
64158;BME280;50449;51.528;5.076;2023-05-21T06:53:09;101667.19;;;19.08;44.82
64158;BME280;50449;51.528;5.076;2023-05-21T06:55:34;101668.00;;;19.09;44.83
64158;BME280;50449;51.528;5.076;2023-05-21T06:58:00;101672.66;;;19.08;44.64
64158;BME280;50449;51.528;5.076;2023-05-21T07:00:25;101672.09;;;19.06;44.71
64158;BME280;50449;51.528;5.076;2023-05-21T07:02:51;101667.44;;;19.07;45.16
64158;BME280;50449;51.528;5.076;2023-05-21T07:05:16;101665.81;;;19.06;45.16
64158;BME280;50449;51.528;5.076;2023-05-21T07:07:42;101659.53;;;19.05;44.81
64158;BME280;50449;51.528;5.076;2023-05-21T07:10:08;101655.94;;;19.05;44.73
64158;BME280;50449;51.528;5.076;2023-05-21T07:12:33;101656.78;;;19.05;45.21
64158;BME280;50449;51.528;5.076;2023-05-21T07:14:59;101655.13;;;19.04;44.99
64158;BME280;50449;51.528;5.076;2023-05-21T07:17:24;101652.38;;;19.04;45.31
64158;BME280;50449;51.528;5.076;2023-05-21T07:19:50;101654.31;;;19.03;45.14
64158;BME280;50449;51.528;5.076;2023-05-21T07:22:15;101651.56;;;19.03;45.52
64158;BME280;50449;51.528;5.076;2023-05-21T07:24:41;101648.84;;;19.03;45.60
64158;BME280;50449;51.528;5.076;2023-05-21T07:27:06;101653.19;;;19.05;45.61
64158;BME280;50449;51.528;5.076;2023-05-21T07:29:32;101647.72;;;19.05;45.37
64158;BME280;50449;51.528;5.076;2023-05-21T07:31:58;101653.19;;;19.05;45.62
64158;BME280;50449;51.528;5.076;2023-05-21T07:34:23;101651.31;;;19.05;45.66
64158;BME280;50449;51.528;5.076;2023-05-21T07:36:48;101652.13;;;19.06;45.54
64158;BME280;50449;51.528;5.076;2023-05-21T07:39:14;101652.13;;;19.06;45.73
64158;BME280;50449;51.528;5.076;2023-05-21T07:41:39;101651.81;;;19.07;45.27
64158;BME280;50449;51.528;5.076;2023-05-21T07:44:05;101654.31;;;19.09;45.59
64158;BME280;50449;51.528;5.076;2023-05-21T07:46:30;101653.19;;;19.10;45.54
64158;BME280;50449;51.528;5.076;2023-05-21T07:48:56;101643.91;;;19.11;45.74
64158;BME280;50449;51.528;5.076;2023-05-21T07:51:21;101645.53;;;19.12;45.71
64158;BME280;50449;51.528;5.076;2023-05-21T07:53:47;101648.00;;;19.13;45.51
64158;BME280;50449;51.528;5.076;2023-05-21T07:56:12;101655.91;;;19.15;45.71
64158;BME280;50449;51.528;5.076;2023-05-21T07:58:38;101661.13;;;19.16;46.12
64158;BME280;50449;51.528;5.076;2023-05-21T08:01:04;101660.84;;;19.18;45.80
64158;BME280;50449;51.528;5.076;2023-05-21T08:03:30;101663.31;;;19.19;45.91
64158;BME280;50449;51.528;5.076;2023-05-21T08:05:56;101671.81;;;19.23;45.96
64158;BME280;50449;51.528;5.076;2023-05-21T08:08:21;101657.81;;;19.24;45.79
64158;BME280;50449;51.528;5.076;2023-05-21T08:10:48;101654.81;;;19.26;45.94
64158;BME280;50449;51.528;5.076;2023-05-21T08:13:16;101649.88;;;19.28;46.32
64158;BME280;50449;51.528;5.076;2023-05-21T08:15:42;101646.56;;;19.31;45.84
64158;BME280;50449;51.528;5.076;2023-05-21T08:18:07;101642.44;;;19.34;46.21
64158;BME280;50449;51.528;5.076;2023-05-21T08:20:33;101645.44;;;19.37;46.30
64158;BME280;50449;51.528;5.076;2023-05-21T08:22:58;101647.63;;;19.40;46.32
64158;BME280;50449;51.528;5.076;2023-05-21T08:25:25;101646.25;;;19.43;46.63
64158;BME280;50449;51.528;5.076;2023-05-21T08:27:50;101634.72;;;19.46;46.62
64158;BME280;50449;51.528;5.076;2023-05-21T08:30:15;101644.31;;;19.49;46.19
64158;BME280;50449;51.528;5.076;2023-05-21T08:32:41;101636.63;;;19.51;46.05
64158;BME280;50449;51.528;5.076;2023-05-21T08:35:07;101633.03;;;19.55;46.51
64158;BME280;50449;51.528;5.076;2023-05-21T08:37:32;101628.91;;;19.58;46.53
64158;BME280;50449;51.528;5.076;2023-05-21T08:39:58;101627.25;;;19.62;46.79
64158;BME280;50449;51.528;5.076;2023-05-21T08:42:38;101615.44;;;19.66;46.49
64158;BME280;50449;51.528;5.076;2023-05-21T08:45:05;101623.94;;;19.70;46.76
64158;BME280;50449;51.528;5.076;2023-05-21T08:47:34;101625.84;;;19.75;46.44
64158;BME280;50449;51.528;5.076;2023-05-21T08:50:02;101627.72;;;19.79;47.03
64158;BME280;50449;51.528;5.076;2023-05-21T08:52:30;101617.84;;;19.83;46.45
64158;BME280;50449;51.528;5.076;2023-05-21T08:54:55;101619.72;;;19.88;46.84
64158;BME280;50449;51.528;5.076;2023-05-21T08:57:22;101617.78;;;19.94;47.12
64158;BME280;50449;51.528;5.076;2023-05-21T08:59:49;101619.69;;;19.98;47.03
64158;BME280;50449;51.528;5.076;2023-05-21T09:02:15;101625.94;;;20.04;46.79
64158;BME280;50449;51.528;5.076;2023-05-21T09:04:43;101625.91;;;20.09;46.71
64158;BME280;50449;51.528;5.076;2023-05-21T09:07:14;101629.41;;;20.15;47.20
64158;BME280;50449;51.528;5.076;2023-05-21T09:10:08;101632.66;;;20.22;47.06
64158;BME280;50449;51.528;5.076;2023-05-21T09:12:36;101631.81;;;20.26;47.25
64158;BME280;50449;51.528;5.076;2023-05-21T09:15:02;101630.66;;;20.32;47.31
64158;BME280;50449;51.528;5.076;2023-05-21T09:17:28;101635.28;;;20.37;47.06
64158;BME280;50449;51.528;5.076;2023-05-21T09:20:05;101628.63;;;20.43;47.15
64158;BME280;50449;51.528;5.076;2023-05-21T09:22:41;101626.97;;;20.47;47.22
64158;BME280;50449;51.528;5.076;2023-05-21T09:25:12;101624.16;;;20.52;47.62
64158;BME280;50449;51.528;5.076;2023-05-21T09:27:38;101617.31;;;20.55;47.18
64158;BME280;50449;51.528;5.076;2023-05-21T09:30:08;101616.16;;;20.61;47.35
64158;BME280;50449;51.528;5.076;2023-05-21T09:32:35;101626.00;;;20.67;47.12
64158;BME280;50449;51.528;5.076;2023-05-21T09:35:08;101615.19;;;20.76;47.35
64158;BME280;50449;51.528;5.076;2023-05-21T09:37:40;101614.31;;;20.81;47.28
64158;BME280;50449;51.528;5.076;2023-05-21T09:42:48;101617.22;;;20.94;47.34
64158;BME280;50449;51.528;5.076;2023-05-21T09:45:32;101617.69;;;21.02;47.68
64158;BME280;50449;51.528;5.076;2023-05-21T09:47:58;101610.19;;;21.07;47.18
64158;BME280;50449;51.528;5.076;2023-05-21T09:50:26;101600.78;;;21.13;47.15
64158;BME280;50449;51.528;5.076;2023-05-21T09:52:53;101607.84;;;21.20;47.03
64158;BME280;50449;51.528;5.076;2023-05-21T09:55:24;101602.78;;;21.27;47.25
64158;BME280;50449;51.528;5.076;2023-05-21T09:57:51;101598.59;;;21.34;47.01
64158;BME280;50449;51.528;5.076;2023-05-21T10:02:45;101593.22;;;21.48;46.88
64158;BME280;50449;51.528;5.076;2023-05-21T10:05:13;101591.75;;;21.56;47.41
64158;BME280;50449;51.528;5.076;2023-05-21T10:07:41;101602.91;;;21.65;47.33
64158;BME280;50449;51.528;5.076;2023-05-21T10:10:11;101589.59;;;21.72;47.09
64158;BME280;50449;51.528;5.076;2023-05-21T10:12:42;101596.34;;;21.79;46.85
64158;BME280;50449;51.528;5.076;2023-05-21T10:15:12;101581.94;;;21.88;46.72
64158;BME280;50449;51.528;5.076;2023-05-21T10:17:39;101576.56;;;21.96;46.87
64158;BME280;50449;51.528;5.076;2023-05-21T10:20:06;101577.81;;;22.04;46.89
64158;BME280;50449;51.528;5.076;2023-05-21T10:22:33;101582.63;;;22.12;47.07
64158;BME280;50449;51.528;5.076;2023-05-21T10:25:00;101578.13;;;22.21;46.77
64158;BME280;50449;51.528;5.076;2023-05-21T10:27:28;101575.78;;;22.29;47.07
64158;BME280;50449;51.528;5.076;2023-05-21T10:29:56;101566.03;;;22.36;46.75
64158;BME280;50449;51.528;5.076;2023-05-21T10:32:21;101572.78;;;22.44;46.53
64158;BME280;50449;51.528;5.076;2023-05-21T10:34:48;101567.38;;;22.53;46.51
64158;BME280;50449;51.528;5.076;2023-05-21T10:37:15;101565.88;;;22.60;46.69
64158;BME280;50449;51.528;5.076;2023-05-21T10:39:42;101565.16;;;22.68;46.90
64158;BME280;50449;51.528;5.076;2023-05-21T10:48:01;101570.97;;;22.95;46.55
64158;BME280;50449;51.528;5.076;2023-05-21T11:01:11;101552.81;;;23.35;46.39
64158;BME280;50449;51.528;5.076;2023-05-21T11:03:36;101544.13;;;23.42;46.37
64158;BME280;50449;51.528;5.076;2023-05-21T11:06:02;101552.47;;;23.50;46.30
64158;BME280;50449;51.528;5.076;2023-05-21T11:08:30;101554.50;;;23.59;45.87
64158;BME280;50449;51.528;5.076;2023-05-21T11:10:58;101548.22;;;23.67;46.14
64158;BME280;50449;51.528;5.076;2023-05-21T11:13:25;101540.38;;;23.74;45.94
64158;BME280;50449;51.528;5.076;2023-05-21T11:21:11;101528.50;;;23.96;45.39
64158;BME280;50449;51.528;5.076;2023-05-21T11:26:20;101526.50;;;24.10;45.55
64158;BME280;50449;51.528;5.076;2023-05-21T11:31:29;101517.31;;;24.24;44.87
64158;BME280;50449;51.528;5.076;2023-05-21T11:36:46;101512.53;;;24.38;44.79
64158;BME280;50449;51.528;5.076;2023-05-21T11:39:18;101511.78;;;24.46;45.31
64158;BME280;50449;51.528;5.076;2023-05-21T11:41:58;101510.19;;;24.54;45.28
64158;BME280;50449;51.528;5.076;2023-05-21T11:44:43;101508.59;;;24.61;44.99
64158;BME280;50449;51.528;5.076;2023-05-21T11:47:10;101502.91;;;24.67;44.93
64158;BME280;50449;51.528;5.076;2023-05-21T11:49:37;101502.47;;;24.73;45.03
64158;BME280;50449;51.528;5.076;2023-05-21T11:52:04;101496.47;;;24.80;44.61
64158;BME280;50449;51.528;5.076;2023-05-21T11:54:31;101484.13;;;24.86;44.60
64158;BME280;50449;51.528;5.076;2023-05-21T11:57:12;101483.31;;;24.94;44.62
64158;BME280;50449;51.528;5.076;2023-05-21T11:59:41;101476.81;;;24.99;44.24
64158;BME280;50449;51.528;5.076;2023-05-21T12:02:07;101483.50;;;25.07;44.31
64158;BME280;50449;51.528;5.076;2023-05-21T12:04:34;101479.78;;;25.11;44.42
64158;BME280;50449;51.528;5.076;2023-05-21T12:07:07;101479.34;;;25.18;43.78
64158;BME280;50449;51.528;5.076;2023-05-21T12:09:53;101472.50;;;25.24;44.10
64158;BME280;50449;51.528;5.076;2023-05-21T12:12:21;101474.28;;;25.29;44.03
64158;BME280;50449;51.528;5.076;2023-05-21T12:14:51;101462.25;;;25.33;44.07
64158;BME280;50449;51.528;5.076;2023-05-21T12:17:22;101461.28;;;25.38;43.64
64158;BME280;50449;51.528;5.076;2023-05-21T12:19:50;101470.22;;;25.43;44.03
64158;BME280;50449;51.528;5.076;2023-05-21T12:22:15;101473.94;;;25.47;43.49
64158;BME280;50449;51.528;5.076;2023-05-21T12:24:42;101464.38;;;25.54;42.76
64158;BME280;50449;51.528;5.076;2023-05-21T12:27:08;101476.41;;;25.58;42.82
64158;BME280;50449;51.528;5.076;2023-05-21T12:29:39;101472.66;;;25.62;43.12
64158;BME280;50449;51.528;5.076;2023-05-21T12:32:07;101489.06;;;25.67;42.99
64158;BME280;50449;51.528;5.076;2023-05-21T12:34:52;101490.88;;;25.72;42.89
64158;BME280;50449;51.528;5.076;2023-05-21T12:37:26;101482.06;;;25.79;43.19
64158;BME280;50449;51.528;5.076;2023-05-21T12:39:53;101484.66;;;25.84;42.86
64158;BME280;50449;51.528;5.076;2023-05-21T12:42:26;101480.16;;;25.88;43.06
64158;BME280;50449;51.528;5.076;2023-05-21T12:44:54;101479.13;;;25.93;42.63
64158;BME280;50449;51.528;5.076;2023-05-21T12:47:22;101477.03;;;25.98;42.55
64158;BME280;50449;51.528;5.076;2023-05-21T12:49:49;101473.25;;;26.03;42.64
64158;BME280;50449;51.528;5.076;2023-05-21T12:52:17;101475.84;;;26.08;42.51
64158;BME280;50449;51.528;5.076;2023-05-21T12:54:48;101476.50;;;26.14;42.20
64158;BME280;50449;51.528;5.076;2023-05-21T12:57:17;101479.09;;;26.19;42.51
64158;BME280;50449;51.528;5.076;2023-05-21T12:59:53;101475.31;;;26.23;42.26
64158;BME280;50449;51.528;5.076;2023-05-21T13:02:25;101477.06;;;26.28;42.29
64158;BME280;50449;51.528;5.076;2023-05-21T13:05:14;101470.53;;;26.32;42.25
64158;BME280;50449;51.528;5.076;2023-05-21T13:07:41;101473.13;;;26.38;41.94
64158;BME280;50449;51.528;5.076;2023-05-21T13:10:08;101472.94;;;26.43;41.98
64158;BME280;50449;51.528;5.076;2023-05-21T13:12:35;101473.91;;;26.47;42.07
64158;BME280;50449;51.528;5.076;2023-05-21T13:15:03;101481.22;;;26.51;41.74
64158;BME280;50449;51.528;5.076;2023-05-21T13:17:29;101468.34;;;26.55;42.25
64158;BME280;50449;51.528;5.076;2023-05-21T13:22:46;101483.66;;;26.62;41.94
64158;BME280;50449;51.528;5.076;2023-05-21T13:25:16;101479.06;;;26.66;41.71
64158;BME280;50449;51.528;5.076;2023-05-21T13:27:43;101484.75;;;26.69;41.72